Yuho Maru No.3 — JD2491 — position and weather

sailwx.info

Track history (hours):
 
Tides and Currents Weather Stations Pressure Air Temp Water Temp Dewpoint Dewpoint Depression Visibility Wind Speed Wind Dir Waves Ship Positions

Yuho Maru No.3

Last reported at 2016-Apr-30 06:34 UTC. Time now 2016-May-03 18:13 UTC.
Position N 34°36' E 135°03'.

Length 65 m; draft 4.2 m.

Type: Tanker. MMSI: 431000336.

Date/timePositionNaut miles runAvg speedWind from/ knotsBaromVisibWave heightAir tempDewpointWater temp
2016-Apr-30 06:34N 34°36' E 135°03'1212.1
2016-Apr-30 05:33N 34°39' E 135°17'1 1.5
2016-Apr-30 04:33N 34°40' E 135°18'0 0.0
2016-Apr-30 03:23N 34°40' E 135°18'0 0.4
2016-Apr-30 02:29N 34°40' E 135°18'1 1.4
2016-Apr-30 01:33N 34°39' E 135°19'0 0.0
2016-Apr-30 00:33N 34°39' E 135°19'0 0.0
2016-Apr-29 23:21N 34°39' E 135°19'0 0.1
2016-Apr-29 22:33N 34°39' E 135°19'2 2.0
2016-Apr-29 21:33N 34°38' E 135°17'1212.0
2016-Apr-29 20:33N 34°36' E 135°03'  
2016-Apr-26 09:33N 35°05' E 139°36'1211.9
2016-Apr-26 08:33N 35°13' E 139°46'1110.7
2016-Apr-26 07:33N 35°23' E 139°41'0 0.0
2016-Apr-26 06:33N 35°23' E 139°41'0 0.0
2016-Apr-26 05:33N 35°23' E 139°41'0 0.1
2016-Apr-26 04:33N 35°23' E 139°41'0 0.2
2016-Apr-26 03:33N 35°22' E 139°41'1 1.0
2016-Apr-26 02:33N 35°22' E 139°41'0 0.0
2016-Apr-26 01:33N 35°22' E 139°41'0 0.0
2016-Apr-26 00:33N 35°22' E 139°41'0 0.0
2016-Apr-25 23:33N 35°22' E 139°41'0 0.0
2016-Apr-25 22:33N 35°22' E 139°41'0 0.0
2016-Apr-25 21:33N 35°22' E 139°41'7 6.6
2016-Apr-25 20:33N 35°16' E 139°46'1211.8
2016-Apr-25 19:33N 35°05' E 139°43'29 0.9
2016-Apr-24 10:26N 34°53' E 139°11'3411.8
2016-Apr-24 07:33N 35°11' E 139°45'1110.7
2016-Apr-24 06:33N 35°22' E 139°42'9 9.1
2016-Apr-24 05:33N 35°30' E 139°45'1 0.9
2016-Apr-24 04:32N 35°31' E 139°45'0 0.0
2016-Apr-24 03:17N 35°31' E 139°45'0 0.0
2016-Apr-24 02:32N 35°31' E 139°45'0 0.0
2016-Apr-24 01:33N 35°31' E 139°45'0 0.0
2016-Apr-24 00:33N 35°31' E 139°45'0 0.0
2016-Apr-23 23:33N 35°31' E 139°45'2 2.1
2016-Apr-23 22:33N 35°30' E 139°47'2 2.3
2016-Apr-23 21:33N 35°30' E 139°50'0 0.1
2016-Apr-23 20:30N 35°30' E 139°50'0 0.0
2016-Apr-23 19:33N 35°30' E 139°50'0 0.1
2016-Apr-23 18:33N 35°30' E 139°50'0 0.0
2016-Apr-23 17:33N 35°30' E 139°50'0 0.0
2016-Apr-23 16:33N 35°30' E 139°50'0 0.0
2016-Apr-23 15:33N 35°30' E 139°50'0 0.0
2016-Apr-23 14:33N 35°30' E 139°50'0 0.0
2016-Apr-23 13:33N 35°30' E 139°50'0 0.0
2016-Apr-23 12:33N 35°30' E 139°50'0 0.0
2016-Apr-23 11:33N 35°30' E 139°50'0 0.0
2016-Apr-23 10:33N 35°30' E 139°50'0 0.0
2016-Apr-23 09:33N 35°30' E 139°50'1 0.9
2016-Apr-23 08:34N 35°30' E 139°51'9 8.6
2016-Apr-23 07:34N 35°28' E 140°01'0 0.0
2016-Apr-23 06:33N 35°28' E 140°01'0 0.0
2016-Apr-23 05:33N 35°28' E 140°01'0 0.0
2016-Apr-23 04:34N 35°28' E 140°01'0 0.0
2016-Apr-23 03:33N 35°28' E 140°01'1010.1
2016-Apr-23 02:33N 35°30' E 139°49'3 3.4
2016-Apr-23 01:34N 35°31' E 139°45'0 0.0
2016-Apr-23 00:32N 35°31' E 139°45'1 0.7
2016-Apr-22 23:33N 35°30' E 139°46'1 0.5
2016-Apr-22 22:33N 35°30' E 139°46'0 0.0
2016-Apr-22 21:33N 35°30' E 139°46'0 0.0
2016-Apr-22 20:33N 35°30' E 139°46'0 0.0
2016-Apr-22 18:33N 35°30' E 139°46'0 0.0
2016-Apr-22 17:09N 35°30' E 139°46'0 0.0
2016-Apr-22 16:27N 35°30' E 139°46'0 0.0
2016-Apr-22 15:27N 35°30' E 139°46'0 0.0
2016-Apr-22 14:33N 35°30' E 139°46'0 0.0
2016-Apr-22 13:27N 35°30' E 139°46'0 0.0
2016-Apr-22 12:27N 35°30' E 139°46'0 0.0
2016-Apr-22 11:24N 35°30' E 139°46'0 0.0
2016-Apr-22 10:27N 35°30' E 139°46'0 0.0
2016-Apr-22 09:21N 35°30' E 139°46'0 0.0
2016-Apr-22 08:33N 35°30' E 139°46'8 8.3
2016-Apr-22 07:34N 35°34' E 139°55'6 6.2
2016-Apr-22 06:33N 35°40' E 139°56'0 0.0
2016-Apr-22 05:33N 35°40' E 139°56'0 0.0
2016-Apr-22 04:33N 35°40' E 139°56'7 6.9
2016-Apr-22 03:33N 35°35' E 140°02'4 3.6
2016-Apr-22 02:31N 35°33' E 140°06'0 0.0
2016-Apr-22 01:31N 35°33' E 140°06'0 0.0
2016-Apr-22 00:31N 35°33' E 140°06'0 0.0
2016-Apr-21 23:31N 35°33' E 140°06'0 0.0
2016-Apr-21 22:32N 35°33' E 140°06'7 7.2
2016-Apr-21 21:33N 35°35' E 139°58'3 2.8
2016-Apr-21 20:33N 35°36' E 139°54'0 0.0
2016-Apr-21 19:33N 35°36' E 139°54'0 0.0
2016-Apr-21 18:33N 35°36' E 139°54'0 0.0
2016-Apr-21 17:33N 35°36' E 139°54'0 0.0
2016-Apr-21 16:31N 35°36' E 139°54'0 0.1
2016-Apr-21 15:33N 35°36' E 139°54'0 0.0
2016-Apr-21 14:33N 35°36' E 139°54'0 0.1
2016-Apr-21 13:34N 35°36' E 139°54'0 0.0
2016-Apr-21 12:33N 35°36' E 139°54'0 0.0
2016-Apr-21 11:32N 35°36' E 139°54'0 0.0
2016-Apr-21 10:31N 35°36' E 139°54'2 2.1
2016-Apr-21 09:33N 35°34' E 139°53'7 7.0
2016-Apr-21 08:33N 35°32' E 139°46'0 0.0
2016-Apr-21 07:33N 35°32' E 139°45'0 0.0
2016-Apr-21 06:33N 35°32' E 139°46'4 4.5
2016-Apr-21 05:33N 35°31' E 139°51'1111.4
2016-Apr-21 04:34N 35°33' E 140°05'1 0.9
2016-Apr-21 03:33N 35°32' E 140°05'0 0.0
2016-Apr-21 02:33N 35°32' E 140°05'0 0.0
2016-Apr-21 01:33N 35°32' E 140°05'0 0.0
2016-Apr-21 00:33N 35°32' E 140°05'0 0.0
2016-Apr-20 23:33N 35°32' E 140°05'2 2.2
2016-Apr-20 22:33N 35°34' E 140°03'9 8.8
2016-Apr-20 21:33N 35°29' E 139°55'0 0.0
2016-Apr-20 20:29N 35°29' E 139°54'0 0.1
2016-Apr-20 19:32N 35°29' E 139°55'0 0.0
2016-Apr-20 18:29N 35°29' E 139°55'0 0.0
2016-Apr-20 17:32N 35°29' E 139°55'0 0.0
2016-Apr-20 16:32N 35°29' E 139°55'0 0.0
2016-Apr-20 15:26N 35°29' E 139°55'0 0.0
2016-Apr-20 14:32N 35°29' E 139°55'0 0.0
2016-Apr-20 13:32N 35°29' E 139°54'0 0.0
2016-Apr-20 12:32N 35°29' E 139°54'0 0.0
2016-Apr-20 11:32N 35°29' E 139°54'0 0.0
2016-Apr-20 10:32N 35°29' E 139°54'0 0.0
2016-Apr-20 09:32N 35°29' E 139°54'0 0.0
2016-Apr-20 08:32N 35°29' E 139°54'0 0.0
2016-Apr-20 07:33N 35°29' E 139°54'  
Track history (hours):
 
Tides and Currents Weather Stations Pressure Air Temp Water Temp Dewpoint Dewpoint Depression Visibility Wind Speed Wind Dir Waves Ship Positions

Yuho Maru No.3

Last reported at 2016-Apr-30 06:34 UTC. Time now 2016-May-03 18:13 UTC.
Position N 34°36' E 135°03'.

Length 65 m; draft 4.2 m.

Type: Tanker. MMSI: 431000336.

Date/timePositionNaut miles runAvg speedWind from/ knotsBaromVisibWave heightAir tempDewpointWater temp
2016-Apr-30 06:34N 34°36' E 135°03'1212.1
2016-Apr-30 05:33N 34°39' E 135°17'1 1.5
2016-Apr-30 04:33N 34°40' E 135°18'0 0.0
2016-Apr-30 03:23N 34°40' E 135°18'0 0.4
2016-Apr-30 02:29N 34°40' E 135°18'1 1.4
2016-Apr-30 01:33N 34°39' E 135°19'0 0.0
2016-Apr-30 00:33N 34°39' E 135°19'0 0.0
2016-Apr-29 23:21N 34°39' E 135°19'0 0.1
2016-Apr-29 22:33N 34°39' E 135°19'2 2.0
2016-Apr-29 21:33N 34°38' E 135°17'1212.0
2016-Apr-29 20:33N 34°36' E 135°03'  
2016-Apr-26 09:33N 35°05' E 139°36'1211.9
2016-Apr-26 08:33N 35°13' E 139°46'1110.7
2016-Apr-26 07:33N 35°23' E 139°41'0 0.0
2016-Apr-26 06:33N 35°23' E 139°41'0 0.0
2016-Apr-26 05:33N 35°23' E 139°41'0 0.1
2016-Apr-26 04:33N 35°23' E 139°41'0 0.2
2016-Apr-26 03:33N 35°22' E 139°41'1 1.0
2016-Apr-26 02:33N 35°22' E 139°41'0 0.0
2016-Apr-26 01:33N 35°22' E 139°41'0 0.0
2016-Apr-26 00:33N 35°22' E 139°41'0 0.0
2016-Apr-25 23:33N 35°22' E 139°41'0 0.0
2016-Apr-25 22:33N 35°22' E 139°41'0 0.0
2016-Apr-25 21:33N 35°22' E 139°41'7 6.6
2016-Apr-25 20:33N 35°16' E 139°46'1211.8
2016-Apr-25 19:33N 35°05' E 139°43'29 0.9
2016-Apr-24 10:26N 34°53' E 139°11'3411.8
2016-Apr-24 07:33N 35°11' E 139°45'1110.7
2016-Apr-24 06:33N 35°22' E 139°42'9 9.1
2016-Apr-24 05:33N 35°30' E 139°45'1 0.9
2016-Apr-24 04:32N 35°31' E 139°45'0 0.0
2016-Apr-24 03:17N 35°31' E 139°45'0 0.0
2016-Apr-24 02:32N 35°31' E 139°45'0 0.0
2016-Apr-24 01:33N 35°31' E 139°45'0 0.0
2016-Apr-24 00:33N 35°31' E 139°45'0 0.0
2016-Apr-23 23:33N 35°31' E 139°45'2 2.1
2016-Apr-23 22:33N 35°30' E 139°47'2 2.3
2016-Apr-23 21:33N 35°30' E 139°50'0 0.1
2016-Apr-23 20:30N 35°30' E 139°50'0 0.0
2016-Apr-23 19:33N 35°30' E 139°50'0 0.1
2016-Apr-23 18:33N 35°30' E 139°50'0 0.0
2016-Apr-23 17:33N 35°30' E 139°50'0 0.0
2016-Apr-23 16:33N 35°30' E 139°50'0 0.0
2016-Apr-23 15:33N 35°30' E 139°50'0 0.0
2016-Apr-23 14:33N 35°30' E 139°50'0 0.0
2016-Apr-23 13:33N 35°30' E 139°50'0 0.0
2016-Apr-23 12:33N 35°30' E 139°50'0 0.0
2016-Apr-23 11:33N 35°30' E 139°50'0 0.0
2016-Apr-23 10:33N 35°30' E 139°50'0 0.0
2016-Apr-23 09:33N 35°30' E 139°50'1 0.9
2016-Apr-23 08:34N 35°30' E 139°51'9 8.6
2016-Apr-23 07:34N 35°28' E 140°01'0 0.0
2016-Apr-23 06:33N 35°28' E 140°01'0 0.0
2016-Apr-23 05:33N 35°28' E 140°01'0 0.0
2016-Apr-23 04:34N 35°28' E 140°01'0 0.0
2016-Apr-23 03:33N 35°28' E 140°01'1010.1
2016-Apr-23 02:33N 35°30' E 139°49'3 3.4
2016-Apr-23 01:34N 35°31' E 139°45'0 0.0
2016-Apr-23 00:32N 35°31' E 139°45'1 0.7
2016-Apr-22 23:33N 35°30' E 139°46'1 0.5
2016-Apr-22 22:33N 35°30' E 139°46'0 0.0
2016-Apr-22 21:33N 35°30' E 139°46'0 0.0
2016-Apr-22 20:33N 35°30' E 139°46'0 0.0
2016-Apr-22 18:33N 35°30' E 139°46'0 0.0
2016-Apr-22 17:09N 35°30' E 139°46'0 0.0
2016-Apr-22 16:27N 35°30' E 139°46'0 0.0
2016-Apr-22 15:27N 35°30' E 139°46'0 0.0
2016-Apr-22 14:33N 35°30' E 139°46'0 0.0
2016-Apr-22 13:27N 35°30' E 139°46'0 0.0
2016-Apr-22 12:27N 35°30' E 139°46'0 0.0
2016-Apr-22 11:24N 35°30' E 139°46'0 0.0
2016-Apr-22 10:27N 35°30' E 139°46'0 0.0
2016-Apr-22 09:21N 35°30' E 139°46'0 0.0
2016-Apr-22 08:33N 35°30' E 139°46'8 8.3
2016-Apr-22 07:34N 35°34' E 139°55'6 6.2
2016-Apr-22 06:33N 35°40' E 139°56'0 0.0
2016-Apr-22 05:33N 35°40' E 139°56'0 0.0
2016-Apr-22 04:33N 35°40' E 139°56'7 6.9
2016-Apr-22 03:33N 35°35' E 140°02'4 3.6
2016-Apr-22 02:31N 35°33' E 140°06'0 0.0
2016-Apr-22 01:31N 35°33' E 140°06'0 0.0
2016-Apr-22 00:31N 35°33' E 140°06'0 0.0
2016-Apr-21 23:31N 35°33' E 140°06'0 0.0
2016-Apr-21 22:32N 35°33' E 140°06'7 7.2
2016-Apr-21 21:33N 35°35' E 139°58'3 2.8
2016-Apr-21 20:33N 35°36' E 139°54'0 0.0
2016-Apr-21 19:33N 35°36' E 139°54'0 0.0
2016-Apr-21 18:33N 35°36' E 139°54'0 0.0
2016-Apr-21 17:33N 35°36' E 139°54'0 0.0
2016-Apr-21 16:31N 35°36' E 139°54'0 0.1
2016-Apr-21 15:33N 35°36' E 139°54'0 0.0
2016-Apr-21 14:33N 35°36' E 139°54'0 0.1
2016-Apr-21 13:34N 35°36' E 139°54'0 0.0
2016-Apr-21 12:33N 35°36' E 139°54'0 0.0
2016-Apr-21 11:32N 35°36' E 139°54'0 0.0
2016-Apr-21 10:31N 35°36' E 139°54'2 2.1
2016-Apr-21 09:33N 35°34' E 139°53'7 7.0
2016-Apr-21 08:33N 35°32' E 139°46'0 0.0
2016-Apr-21 07:33N 35°32' E 139°45'0 0.0
2016-Apr-21 06:33N 35°32' E 139°46'4 4.5
2016-Apr-21 05:33N 35°31' E 139°51'1111.4
2016-Apr-21 04:34N 35°33' E 140°05'1 0.9
2016-Apr-21 03:33N 35°32' E 140°05'0 0.0
2016-Apr-21 02:33N 35°32' E 140°05'0 0.0
2016-Apr-21 01:33N 35°32' E 140°05'0 0.0
2016-Apr-21 00:33N 35°32' E 140°05'0 0.0
2016-Apr-20 23:33N 35°32' E 140°05'2 2.2
2016-Apr-20 22:33N 35°34' E 140°03'9 8.8
2016-Apr-20 21:33N 35°29' E 139°55'0 0.0
2016-Apr-20 20:29N 35°29' E 139°54'0 0.1
2016-Apr-20 19:32N 35°29' E 139°55'0 0.0
2016-Apr-20 18:29N 35°29' E 139°55'0 0.0
2016-Apr-20 17:32N 35°29' E 139°55'0 0.0
2016-Apr-20 16:32N 35°29' E 139°55'0 0.0
2016-Apr-20 15:26N 35°29' E 139°55'0 0.0
2016-Apr-20 14:32N 35°29' E 139°55'0 0.0
2016-Apr-20 13:32N 35°29' E 139°54'0 0.0
2016-Apr-20 12:32N 35°29' E 139°54'0 0.0
2016-Apr-20 11:32N 35°29' E 139°54'0 0.0
2016-Apr-20 10:32N 35°29' E 139°54'0 0.0
2016-Apr-20 09:32N 35°29' E 139°54'0 0.0
2016-Apr-20 08:32N 35°29' E 139°54'0 0.0
2016-Apr-20 07:33N 35°29' E 139°54'  

Dump ship's entire track history